Time;durP1;ratioP1;P1;durP2;ratioP2;P2;SDS_P1;SDS_P2;PMS_P1;PMS_P2;Temp;Humidity;BMP_temperature;BMP_pressure;BME280_temperature;BME280_humidity;BME280_pressure;Samples;Min_cycle;Max_cycle;Signal;HPM_P1;HPM_P2
2022/03/26 00:00:14;;;;;;;;;;;4.50;99.90;;;;;;4991711;28;20041;-53
2022/03/26 00:02:39;;;;;;;;;;;4.30;99.90;;;;;;4991430;28;20412;-52
2022/03/26 00:05:05;;;;;;;;;;;4.30;99.90;;;;;;4989706;28;19906;-52
2022/03/26 00:07:31;;;;;;;;;;;4.30;99.90;;;;;;4991139;28;19925;-53
2022/03/26 00:09:56;;;;;;;;;;;4.20;99.90;;;;;;4991517;28;19917;-52
2022/03/26 00:12:22;;;;;;;;;;;4.20;99.90;;;;;;4991435;28;20436;-52
2022/03/26 00:14:47;;;;;;;;;;;4.10;99.90;;;;;;4991188;28;20364;-52
2022/03/26 00:17:13;;;;;;;;;;;4.20;99.90;;;;;;4991109;28;20053;-51
2022/03/26 00:19:39;;;;;;;;;;;4.10;99.90;;;;;;4973704;28;19972;-50
2022/03/26 00:22:04;;;;;;;;;;;4.10;99.90;;;;;;4991151;28;19905;-52
2022/03/26 00:24:30;;;;;;;;;;;4.10;99.90;;;;;;4991239;28;19965;-50
2022/03/26 00:26:56;;;;;;;;;;;4.10;99.90;;;;;;4990702;28;19912;-51
2022/03/26 00:29:21;;;;;;;;;;;4.10;99.90;;;;;;4957343;28;19918;-51
2022/03/26 00:31:47;;;;;;;;;;;4.00;99.90;;;;;;4990775;28;20577;-52
2022/03/26 00:34:12;;;;;;;;;;;4.00;99.90;;;;;;4973038;28;19916;-50
2022/03/26 00:36:38;;;;;;;;;;;3.90;99.90;;;;;;4990796;28;19916;-50
2022/03/26 00:39:04;;;;;;;;;;;3.90;99.90;;;;;;4983282;28;20258;-51
2022/03/26 00:41:29;;;;;;;;;;;3.90;99.90;;;;;;4971341;28;19910;-49
2022/03/26 00:43:55;;;;;;;;;;;3.90;99.90;;;;;;4971242;28;20368;-50
2022/03/26 00:46:21;;;;;;;;;;;4.00;99.90;;;;;;4971411;28;19910;-52
2022/03/26 00:48:47;;;;;;;;;;;4.00;99.90;;;;;;4970915;28;19962;-52
2022/03/26 00:51:16;;;;;;;;;;;4.10;99.90;;;;;;4971381;28;19914;-51
2022/03/26 00:53:42;;;;;;;;;;;4.20;99.90;;;;;;4971223;28;19906;-50
2022/03/26 00:56:07;;;;;;;;;;;4.00;99.90;;;;;;4970556;28;19903;-49
2022/03/26 00:58:33;;;;;;;;;;;3.90;99.90;;;;;;4990328;28;19909;-51
2022/03/26 01:00:58;;;;;;;;;;;4.00;99.90;;;;;;4990611;28;19906;-50
2022/03/26 01:03:24;;;;;;;;;;;4.00;99.90;;;;;;4972933;28;19960;-52
2022/03/26 01:05:50;;;;;;;;;;;4.00;99.90;;;;;;4989982;28;19916;-51
2022/03/26 01:08:15;;;;;;;;;;;4.00;99.90;;;;;;4990196;28;19945;-50
2022/03/26 01:10:42;;;;;;;;;;;3.90;99.90;;;;;;4990131;28;19918;-50
2022/03/26 01:13:07;;;;;;;;;;;3.90;99.90;;;;;;4990010;28;19905;-50
2022/03/26 01:15:33;;;;;;;;;;;3.80;99.90;;;;;;4989922;28;19909;-53
2022/03/26 01:17:58;;;;;;;;;;;4.00;99.90;;;;;;4972767;28;19952;-50
2022/03/26 01:20:24;;;;;;;;;;;4.00;99.90;;;;;;4990089;28;20433;-51
2022/03/26 01:22:49;;;;;;;;;;;4.00;99.90;;;;;;4989963;28;19906;-52
2022/03/26 01:25:15;;;;;;;;;;;4.00;99.90;;;;;;4989551;28;20471;-52
2022/03/26 01:27:40;;;;;;;;;;;4.00;99.90;;;;;;4989914;28;19906;-50
2022/03/26 01:30:06;;;;;;;;;;;4.00;99.90;;;;;;4989820;28;20063;-51
2022/03/26 01:32:32;;;;;;;;;;;4.20;99.90;;;;;;4990104;28;20043;-50
2022/03/26 01:34:58;;;;;;;;;;;4.20;99.90;;;;;;4989475;28;20315;-52
2022/03/26 01:37:24;;;;;;;;;;;4.30;99.90;;;;;;4989577;28;19917;-51
2022/03/26 01:39:50;;;;;;;;;;;4.40;99.90;;;;;;4977192;28;20449;-50
2022/03/26 01:42:16;;;;;;;;;;;4.40;99.90;;;;;;4970308;28;19964;-51
2022/03/26 01:44:42;;;;;;;;;;;4.40;99.90;;;;;;4970024;28;19906;-52
2022/03/26 01:47:08;;;;;;;;;;;4.40;99.90;;;;;;4970007;28;19906;-51
2022/03/26 01:49:34;;;;;;;;;;;4.30;99.90;;;;;;4968621;28;19925;-50
2022/03/26 01:52:00;;;;;;;;;;;4.40;99.90;;;;;;4970208;28;19906;-50
2022/03/26 01:54:26;;;;;;;;;;;4.40;99.90;;;;;;4969946;28;20012;-52
2022/03/26 01:56:53;;;;;;;;;;;4.30;99.90;;;;;;4975683;28;20340;-52
2022/03/26 01:59:19;;;;;;;;;;;4.30;99.90;;;;;;4989733;28;20281;-51
2022/03/26 02:01:45;;;;;;;;;;;4.30;99.90;;;;;;4989299;28;20372;-50
2022/03/26 02:04:11;;;;;;;;;;;4.20;99.90;;;;;;4989174;28;20365;-51
2022/03/26 02:06:37;;;;;;;;;;;4.10;99.90;;;;;;4988810;28;19918;-51
2022/03/26 02:09:04;;;;;;;;;;;4.20;99.90;;;;;;4989220;28;19921;-51
2022/03/26 02:11:33;;;;;;;;;;;4.00;99.90;;;;;;4971544;28;19909;-52
2022/03/26 02:13:58;;;;;;;;;;;4.00;99.90;;;;;;4989111;28;20269;-51
2022/03/26 02:16:24;;;;;;;;;;;3.90;99.90;;;;;;4988893;28;19909;-53
2022/03/26 02:18:51;;;;;;;;;;;4.00;99.90;;;;;;4971619;28;19964;-51
2022/03/26 02:21:17;;;;;;;;;;;3.90;99.90;;;;;;4989141;28;19968;-51
2022/03/26 02:23:43;;;;;;;;;;;3.70;99.90;;;;;;4988837;28;19979;-52
2022/03/26 02:26:08;;;;;;;;;;;3.60;99.90;;;;;;4988768;28;20405;-51
2022/03/26 02:28:34;;;;;;;;;;;3.40;99.90;;;;;;4988863;28;19976;-53
2022/03/26 02:30:59;;;;;;;;;;;3.60;99.90;;;;;;4988772;28;19918;-52
2022/03/26 02:33:25;;;;;;;;;;;3.80;99.90;;;;;;4988892;28;19910;-52
2022/03/26 02:35:51;;;;;;;;;;;3.80;99.90;;;;;;4988655;28;19905;-53
2022/03/26 02:38:16;;;;;;;;;;;3.80;99.90;;;;;;4988898;28;20336;-52
2022/03/26 02:40:42;;;;;;;;;;;3.70;99.90;;;;;;4969468;28;19917;-51
2022/03/26 02:43:08;;;;;;;;;;;3.70;99.90;;;;;;4969152;28;19941;-52
2022/03/26 02:45:34;;;;;;;;;;;3.90;99.90;;;;;;4965679;28;20297;-52
2022/03/26 02:47:59;;;;;;;;;;;4.00;99.90;;;;;;4969548;28;20001;-52
2022/03/26 02:50:25;;;;;;;;;;;3.90;99.90;;;;;;4969632;28;19950;-51
2022/03/26 02:52:50;;;;;;;;;;;3.60;99.90;;;;;;4969719;28;20302;-54
2022/03/26 02:55:16;;;;;;;;;;;3.30;99.90;;;;;;4969057;28;19906;-51
2022/03/26 02:57:42;;;;;;;;;;;3.10;99.90;;;;;;4963082;28;19921;-51
2022/03/26 03:00:09;;;;;;;;;;;3.00;99.90;;;;;;4989078;28;19945;-51
2022/03/26 03:02:34;;;;;;;;;;;3.00;99.90;;;;;;4989734;28;20381;-51
2022/03/26 03:05:01;;;;;;;;;;;3.20;99.90;;;;;;4972746;28;19910;-50
2022/03/26 03:07:26;;;;;;;;;;;3.50;99.90;;;;;;4973007;28;19941;-50
2022/03/26 03:09:52;;;;;;;;;;;3.60;99.90;;;;;;4973224;28;20435;-49
2022/03/26 03:12:18;;;;;;;;;;;3.50;99.90;;;;;;4972816;28;20274;-51
2022/03/26 03:14:43;;;;;;;;;;;3.60;99.90;;;;;;4971478;28;19914;-52
2022/03/26 03:17:09;;;;;;;;;;;3.70;99.90;;;;;;4972622;28;19956;-51
2022/03/26 03:19:35;;;;;;;;;;;3.60;99.90;;;;;;4973013;28;19925;-52
2022/03/26 03:22:02;;;;;;;;;;;3.60;99.90;;;;;;4972439;28;19910;-51
2022/03/26 03:24:27;;;;;;;;;;;3.60;99.90;;;;;;4972899;28;19914;-51
2022/03/26 03:26:53;;;;;;;;;;;3.60;99.90;;;;;;4972578;28;20328;-51
2022/03/26 03:29:19;;;;;;;;;;;3.50;99.90;;;;;;4972933;28;19914;-53
2022/03/26 03:31:47;;;;;;;;;;;3.50;99.90;;;;;;4972644;28;19910;-52
2022/03/26 03:34:13;;;;;;;;;;;3.50;99.90;;;;;;4972524;28;19914;-52
2022/03/26 03:36:39;;;;;;;;;;;3.50;99.90;;;;;;4972400;28;19910;-51
2022/03/26 03:39:04;;;;;;;;;;;3.50;99.90;;;;;;4972648;28;19917;-52
2022/03/26 03:41:30;;;;;;;;;;;3.60;99.90;;;;;;4972437;28;19964;-53
2022/03/26 03:43:55;;;;;;;;;;;3.40;99.90;;;;;;4972383;28;19910;-53
2022/03/26 03:46:21;;;;;;;;;;;3.40;99.90;;;;;;4972449;28;19962;-52
2022/03/26 03:48:46;;;;;;;;;;;3.40;99.90;;;;;;4972504;28;19914;-51
2022/03/26 03:51:12;;;;;;;;;;;3.30;99.90;;;;;;4972562;28;19910;-53
2022/03/26 03:53:37;;;;;;;;;;;3.40;99.90;;;;;;4971995;28;19910;-53
2022/03/26 03:56:03;;;;;;;;;;;3.40;99.90;;;;;;4971991;28;19910;-51
2022/03/26 03:58:29;;;;;;;;;;;3.30;99.90;;;;;;4987058;28;19906;-52
2022/03/26 04:00:55;;;;;;;;;;;3.30;99.90;;;;;;4991995;28;20264;-51
2022/03/26 04:03:21;;;;;;;;;;;3.30;99.90;;;;;;4974001;28;19948;-52
2022/03/26 04:05:48;;;;;;;;;;;3.30;99.90;;;;;;4991250;28;19916;-52
2022/03/26 04:08:14;;;;;;;;;;;3.20;99.90;;;;;;4991490;28;19917;-53
2022/03/26 04:10:40;;;;;;;;;;;3.10;99.90;;;;;;4991481;28;19918;-52
2022/03/26 04:13:06;;;;;;;;;;;3.30;99.90;;;;;;4991125;28;19919;-52
2022/03/26 04:15:31;;;;;;;;;;;3.30;99.90;;;;;;4991276;28;19906;-52
2022/03/26 04:17:57;;;;;;;;;;;3.30;99.90;;;;;;4991389;28;19913;-52
2022/03/26 04:20:23;;;;;;;;;;;3.40;99.90;;;;;;4991412;28;19906;-51
2022/03/26 04:22:49;;;;;;;;;;;3.30;99.90;;;;;;4991036;28;20436;-51
2022/03/26 04:25:14;;;;;;;;;;;3.30;99.90;;;;;;4990834;28;20020;-50
2022/03/26 04:27:43;;;;;;;;;;;3.40;99.90;;;;;;4991232;28;19957;-52
2022/03/26 04:30:10;;;;;;;;;;;3.40;99.90;;;;;;4991061;28;20316;-50
2022/03/26 04:32:35;;;;;;;;;;;3.50;99.90;;;;;;4973263;28;19972;-51
2022/03/26 04:35:01;;;;;;;;;;;3.50;99.90;;;;;;4990899;28;19914;-51
2022/03/26 04:37:27;;;;;;;;;;;3.40;99.90;;;;;;4990847;28;19909;-53
2022/03/26 04:39:52;;;;;;;;;;;3.40;99.90;;;;;;4982549;28;19906;-54
2022/03/26 04:42:18;;;;;;;;;;;3.30;99.90;;;;;;4971202;28;19910;-51
2022/03/26 04:44:43;;;;;;;;;;;3.20;99.90;;;;;;4971344;28;19989;-53
2022/03/26 04:47:09;;;;;;;;;;;3.30;99.90;;;;;;4971068;28;19932;-52
2022/03/26 04:49:34;;;;;;;;;;;3.30;99.90;;;;;;4971343;28;20385;-53
2022/03/26 04:52:00;;;;;;;;;;;3.30;99.90;;;;;;4971141;28;20337;-52
2022/03/26 04:54:25;;;;;;;;;;;3.40;99.90;;;;;;4971215;28;19910;-53
2022/03/26 04:56:51;;;;;;;;;;;3.50;99.90;;;;;;4972416;28;19957;-52
2022/03/26 04:59:16;;;;;;;;;;;3.60;99.90;;;;;;4990899;28;19969;-52
2022/03/26 05:01:44;;;;;;;;;;;3.50;99.90;;;;;;4990488;28;19917;-51
2022/03/26 05:04:10;;;;;;;;;;;3.60;99.90;;;;;;4990480;28;19910;-53
2022/03/26 05:06:36;;;;;;;;;;;3.60;99.90;;;;;;4990213;28;20000;-52
2022/03/26 05:09:02;;;;;;;;;;;3.60;99.90;;;;;;4990112;28;20313;-53
2022/03/26 05:11:28;;;;;;;;;;;3.60;99.90;;;;;;4990318;28;19909;-53
2022/03/26 05:13:54;;;;;;;;;;;3.60;99.90;;;;;;4990062;28;19945;-52
2022/03/26 05:16:19;;;;;;;;;;;3.70;99.90;;;;;;4989732;28;19956;-52
2022/03/26 05:18:45;;;;;;;;;;;3.70;99.90;;;;;;4972586;28;19965;-51
2022/03/26 05:21:11;;;;;;;;;;;3.70;99.90;;;;;;4990116;28;19915;-54
2022/03/26 05:23:36;;;;;;;;;;;3.80;99.90;;;;;;4989611;28;19910;-51
2022/03/26 05:26:02;;;;;;;;;;;3.80;99.90;;;;;;4989289;28;19969;-52
2022/03/26 05:28:28;;;;;;;;;;;3.90;99.90;;;;;;4989974;28;19913;-52
2022/03/26 05:30:54;;;;;;;;;;;3.90;99.90;;;;;;4989991;28;20216;-53
2022/03/26 05:33:20;;;;;;;;;;;4.00;99.90;;;;;;4972004;28;19956;-51
2022/03/26 05:35:45;;;;;;;;;;;4.10;99.90;;;;;;4989669;28;19997;-52
2022/03/26 05:38:11;;;;;;;;;;;4.10;99.90;;;;;;4989779;28;19905;-51
2022/03/26 05:40:36;;;;;;;;;;;4.20;99.90;;;;;;4975636;28;19913;-51
2022/03/26 05:43:02;;;;;;;;;;;4.30;99.90;;;;;;4969969;28;20540;-51
2022/03/26 05:45:29;;;;;;;;;;;4.40;99.90;;;;;;4970130;28;20029;-53
2022/03/26 05:48:00;;;;;;;;;;;4.60;99.90;;;;;;4970329;28;20008;-52
2022/03/26 05:50:26;;;;;;;;;;;4.70;99.90;;;;;;4970502;28;19918;-53
2022/03/26 05:52:51;;;;;;;;;;;4.90;99.90;;;;;;4970373;28;19910;-52
2022/03/26 05:55:17;;;;;;;;;;;5.10;99.90;;;;;;4969664;28;20012;-53
2022/03/26 05:57:43;;;;;;;;;;;5.20;99.90;;;;;;4978504;28;20009;-52
2022/03/26 06:00:10;;;;;;;;;;;5.30;99.90;;;;;;4989558;28;19949;-51
2022/03/26 06:02:36;;;;;;;;;;;5.50;99.90;;;;;;4972106;28;20294;-52
2022/03/26 06:05:02;;;;;;;;;;;5.70;99.90;;;;;;4971325;28;19910;-51
2022/03/26 06:07:28;;;;;;;;;;;5.70;99.90;;;;;;4989204;28;19921;-52
2022/03/26 06:09:53;;;;;;;;;;;5.80;99.90;;;;;;4989269;28;19920;-52
2022/03/26 06:12:20;;;;;;;;;;;5.90;99.90;;;;;;4989163;28;19968;-52
2022/03/26 06:14:46;;;;;;;;;;;6.00;99.90;;;;;;4989134;28;20388;-52
2022/03/26 06:17:11;;;;;;;;;;;6.00;99.90;;;;;;4977902;28;19917;-52
2022/03/26 06:19:38;;;;;;;;;;;6.10;99.90;;;;;;4972691;28;20350;-51
2022/03/26 06:22:04;;;;;;;;;;;6.20;99.90;;;;;;4969924;28;19953;-52
2022/03/26 06:24:30;;;;;;;;;;;6.20;99.90;;;;;;4970052;28;19961;-52
2022/03/26 06:26:55;;;;;;;;;;;6.30;99.90;;;;;;4969894;28;19945;-51
2022/03/26 06:29:21;;;;;;;;;;;6.40;99.90;;;;;;4968300;28;20413;-52
2022/03/26 06:31:49;;;;;;;;;;;6.50;99.90;;;;;;4969813;28;20354;-54
2022/03/26 06:34:15;;;;;;;;;;;6.50;99.90;;;;;;4970020;28;20017;-52
2022/03/26 06:36:40;;;;;;;;;;;6.60;99.90;;;;;;4970902;28;20412;-52
2022/03/26 06:39:06;;;;;;;;;;;6.70;99.90;;;;;;4973597;28;19916;-53
2022/03/26 06:41:32;;;;;;;;;;;6.80;99.90;;;;;;4973933;28;20286;-53
2022/03/26 06:43:58;;;;;;;;;;;6.80;99.90;;;;;;4973499;28;19910;-51
2022/03/26 06:46:23;;;;;;;;;;;6.90;99.90;;;;;;4973928;28;19917;-50
2022/03/26 06:48:49;;;;;;;;;;;7.00;99.90;;;;;;4972824;28;20388;-51
2022/03/26 06:51:14;;;;;;;;;;;7.20;99.90;;;;;;4973581;28;20326;-52
2022/03/26 06:53:40;;;;;;;;;;;7.40;99.90;;;;;;4973485;28;19936;-51
2022/03/26 06:56:06;;;;;;;;;;;7.50;99.90;;;;;;4973435;28;19917;-51
2022/03/26 06:58:33;;;;;;;;;;;7.60;99.90;;;;;;4988139;28;20259;-51
2022/03/26 07:00:59;;;;;;;;;;;7.60;99.90;;;;;;4992622;28;19929;-52
2022/03/26 07:03:25;;;;;;;;;;;7.70;99.90;;;;;;4992561;28;19932;-53
2022/03/26 07:05:51;;;;;;;;;;;7.80;99.90;;;;;;4992603;28;20030;-53
2022/03/26 07:08:16;;;;;;;;;;;7.90;99.90;;;;;;4991602;28;20385;-53
2022/03/26 07:10:45;;;;;;;;;;;8.00;99.90;;;;;;4992650;28;19925;-51
2022/03/26 07:13:11;;;;;;;;;;;8.10;99.90;;;;;;4976224;28;19913;-52
2022/03/26 07:15:36;;;;;;;;;;;8.30;99.90;;;;;;4973185;28;19910;-51
2022/03/26 07:18:02;;;;;;;;;;;8.40;99.90;;;;;;4972508;28;19921;-52
2022/03/26 07:20:28;;;;;;;;;;;8.60;99.90;;;;;;4971543;28;19910;-51
2022/03/26 07:22:54;;;;;;;;;;;8.80;99.90;;;;;;4971592;28;19910;-53
2022/03/26 07:25:19;;;;;;;;;;;8.90;99.90;;;;;;4972836;28;19910;-51
2022/03/26 07:27:45;;;;;;;;;;;9.10;99.90;;;;;;4972594;28;19906;-54
2022/03/26 07:30:10;;;;;;;;;;;9.20;99.90;;;;;;4972496;28;19969;-52
2022/03/26 07:32:36;;;;;;;;;;;9.30;99.90;;;;;;4972628;28;19992;-52
2022/03/26 07:35:03;;;;;;;;;;;9.50;99.90;;;;;;4973064;28;19906;-52
2022/03/26 07:37:28;;;;;;;;;;;9.70;99.90;;;;;;4971217;28;19956;-50
2022/03/26 07:39:54;;;;;;;;;;;9.80;99.90;;;;;;4972544;28;19985;-51
2022/03/26 07:42:19;;;;;;;;;;;9.90;99.90;;;;;;4972289;28;20001;-52
2022/03/26 07:44:45;;;;;;;;;;;10.00;99.90;;;;;;4972681;28;19936;-52
2022/03/26 07:47:11;;;;;;;;;;;10.20;99.90;;;;;;4971656;28;19989;-53
2022/03/26 07:49:36;;;;;;;;;;;10.30;99.90;;;;;;4972266;28;19922;-52
2022/03/26 07:52:03;;;;;;;;;;;10.40;99.90;;;;;;4972232;28;19913;-52
2022/03/26 07:54:28;;;;;;;;;;;10.60;99.90;;;;;;4972535;28;19910;-52
2022/03/26 07:56:54;;;;;;;;;;;10.60;99.90;;;;;;4974044;28;19916;-52
2022/03/26 07:59:19;;;;;;;;;;;10.80;99.90;;;;;;4991792;28;19906;-51
2022/03/26 08:01:45;;;;;;;;;;;11.00;99.90;;;;;;4991626;28;19981;-50
2022/03/26 08:04:10;;;;;;;;;;;11.10;99.90;;;;;;4991524;28;20345;-51
2022/03/26 08:06:36;;;;;;;;;;;11.20;99.90;;;;;;4991704;28;19949;-51
2022/03/26 08:09:02;;;;;;;;;;;11.30;99.90;;;;;;4991288;28;20285;-52
2022/03/26 08:11:28;;;;;;;;;;;11.50;99.90;;;;;;4989062;28;19909;-51
2022/03/26 08:13:53;;;;;;;;;;;11.60;99.90;;;;;;4972478;28;20337;-51
2022/03/26 08:16:19;;;;;;;;;;;11.70;99.90;;;;;;4972286;28;20023;-52
2022/03/26 08:18:45;;;;;;;;;;;12.00;99.90;;;;;;4971543;28;19906;-51
2022/03/26 08:21:10;;;;;;;;;;;12.10;99.90;;;;;;4972295;28;19910;-53
2022/03/26 08:23:36;;;;;;;;;;;12.30;99.90;;;;;;4971812;28;19909;-51
2022/03/26 08:28:47;;;;;;;;;;;12.80;99.20;;;;;;4971732;28;19913;-52
2022/03/26 08:31:13;;;;;;;;;;;12.80;98.20;;;;;;4971896;28;19910;-53
2022/03/26 08:33:42;;;;;;;;;;;13.10;98.80;;;;;;4971449;28;19910;-52
2022/03/26 08:36:09;;;;;;;;;;;13.20;96.50;;;;;;4972112;28;19906;-53
2022/03/26 08:38:34;;;;;;;;;;;13.60;96.80;;;;;;4971484;28;19940;-53
2022/03/26 08:41:00;;;;;;;;;;;14.20;95.50;;;;;;4971542;28;19910;-54
2022/03/26 08:43:25;;;;;;;;;;;14.50;93.60;;;;;;4970070;28;19910;-50
2022/03/26 08:45:51;;;;;;;;;;;14.60;92.30;;;;;;4971372;28;19909;-54
2022/03/26 08:48:17;;;;;;;;;;;14.90;90.60;;;;;;4971035;28;19910;-52
2022/03/26 08:50:43;;;;;;;;;;;14.90;86.80;;;;;;4971424;28;19925;-51
2022/03/26 08:53:09;;;;;;;;;;;15.20;89.40;;;;;;4971335;28;19910;-51
2022/03/26 08:55:34;;;;;;;;;;;15.40;85.00;;;;;;4971531;28;19946;-51
2022/03/26 08:58:00;;;;;;;;;;;15.00;84.40;;;;;;4964627;28;19910;-51
2022/03/26 09:00:27;;;;;;;;;;;15.80;82.20;;;;;;4989321;28;19914;-53
2022/03/26 09:02:53;;;;;;;;;;;16.10;81.90;;;;;;4990676;28;19910;-53
2022/03/26 09:05:18;;;;;;;;;;;16.30;78.20;;;;;;4972853;28;20341;-52
2022/03/26 09:07:44;;;;;;;;;;;15.60;81.10;;;;;;4989713;28;19917;-50
2022/03/26 09:10:10;;;;;;;;;;;15.70;80.20;;;;;;4990437;28;20288;-51
2022/03/26 09:12:36;;;;;;;;;;;15.40;82.00;;;;;;4978596;28;20778;-51
2022/03/26 09:15:02;;;;;;;;;;;16.40;80.00;;;;;;4971250;28;20336;-50
2022/03/26 09:17:28;;;;;;;;;;;16.30;78.30;;;;;;4970560;28;19916;-51
2022/03/26 09:19:54;;;;;;;;;;;16.60;78.20;;;;;;4970716;28;20008;-51
2022/03/26 09:22:20;;;;;;;;;;;16.80;75.20;;;;;;4970477;28;19987;-50
2022/03/26 09:24:45;;;;;;;;;;;16.90;74.70;;;;;;4971008;28;19954;-51
2022/03/26 09:27:11;;;;;;;;;;;17.50;74.00;;;;;;4970528;28;20397;-52
2022/03/26 09:29:36;;;;;;;;;;;17.20;72.70;;;;;;4970734;28;19918;-53
2022/03/26 09:32:02;;;;;;;;;;;17.10;72.50;;;;;;4970830;28;19912;-52
2022/03/26 09:34:28;;;;;;;;;;;17.20;71.80;;;;;;4970704;28;19917;-52
2022/03/26 09:36:53;;;;;;;;;;;17.10;70.90;;;;;;4968945;28;19913;-51
2022/03/26 09:39:19;;;;;;;;;;;17.20;71.20;;;;;;4970765;28;19910;-51
2022/03/26 09:41:45;;;;;;;;;;;17.60;73.80;;;;;;4970349;28;20357;-51
2022/03/26 09:44:11;;;;;;;;;;;16.60;69.90;;;;;;4970447;28;19906;-52
2022/03/26 09:46:37;;;;;;;;;;;16.60;71.20;;;;;;4970056;28;19910;-51
2022/03/26 09:49:03;;;;;;;;;;;17.20;72.10;;;;;;4969976;28;19972;-53
2022/03/26 09:51:29;;;;;;;;;;;17.70;69.40;;;;;;4970331;28;19965;-52
2022/03/26 09:53:55;;;;;;;;;;;17.80;69.10;;;;;;4970176;28;19917;-51
2022/03/26 09:56:22;;;;;;;;;;;17.60;67.00;;;;;;4970097;28;20334;-51
2022/03/26 09:58:50;;;;;;;;;;;17.50;68.60;;;;;;4986910;28;19909;-52
2022/03/26 10:01:15;;;;;;;;;;;17.70;67.80;;;;;;4989265;28;20009;-51
2022/03/26 10:04:02;;;;;;;;;;;17.60;66.90;;;;;;4989327;28;20000;-53
2022/03/26 10:06:28;;;;;;;;;;;17.30;66.10;;;;;;4989285;28;19925;-52
2022/03/26 10:08:53;;;;;;;;;;;17.70;67.40;;;;;;4988977;28;19909;-52
2022/03/26 10:11:21;;;;;;;;;;;17.20;65.90;;;;;;4988081;28;19910;-52
2022/03/26 10:13:48;;;;;;;;;;;17.70;66.80;;;;;;4969889;28;19910;-49
2022/03/26 10:16:15;;;;;;;;;;;18.00;66.80;;;;;;4970412;28;19937;-53
2022/03/26 10:18:45;;;;;;;;;;;18.40;66.00;;;;;;4969546;28;20628;-50
2022/03/26 10:21:15;;;;;;;;;;;18.50;64.10;;;;;;4969213;28;19933;-50
2022/03/26 10:23:47;;;;;;;;;;;18.30;62.40;;;;;;4969667;28;20012;-50
2022/03/26 10:26:17;;;;;;;;;;;18.00;63.10;;;;;;4969778;28;19914;-52
2022/03/26 10:28:43;;;;;;;;;;;18.40;64.00;;;;;;4969955;28;20009;-52
2022/03/26 10:34:21;;;;;;;;;;;18.80;61.00;;;;;;4970205;28;20009;-51
2022/03/26 10:36:47;;;;;;;;;;;18.80;58.50;;;;;;4969394;28;20380;-53
2022/03/26 10:39:17;;;;;;;;;;;18.80;57.60;;;;;;4969540;28;19910;-50
2022/03/26 10:41:42;;;;;;;;;;;19.20;58.80;;;;;;4969439;28;19914;-52
2022/03/26 10:44:13;;;;;;;;;;;19.00;56.70;;;;;;4952186;28;19976;-51
2022/03/26 10:46:45;;;;;;;;;;;19.10;56.30;;;;;;4969464;28;19910;-50
2022/03/26 10:49:11;;;;;;;;;;;18.70;56.50;;;;;;4969343;28;19914;-50
2022/03/26 10:51:38;;;;;;;;;;;18.70;57.80;;;;;;4969304;28;20425;-50
2022/03/26 10:54:10;;;;;;;;;;;19.20;57.20;;;;;;4969626;28;19912;-51
2022/03/26 10:56:37;;;;;;;;;;;19.30;56.10;;;;;;4969694;28;19965;-50
2022/03/26 10:59:02;;;;;;;;;;;19.60;54.50;;;;;;4988493;28;19929;-52
2022/03/26 11:01:28;;;;;;;;;;;19.20;54.50;;;;;;4988516;28;19984;-51
2022/03/26 11:06:25;;;;;;;;;;;19.70;55.00;;;;;;4947986;28;19926;-50
2022/03/26 11:08:51;;;;;;;;;;;19.70;54.70;;;;;;4949888;29;19914;-52
2022/03/26 11:11:18;;;;;;;;;;;19.40;53.80;;;;;;4931877;29;19911;-52
2022/03/26 11:13:48;;;;;;;;;;;19.50;54.70;;;;;;4949875;29;19906;-52
2022/03/26 11:16:20;;;;;;;;;;;19.60;54.40;;;;;;4930794;29;20020;-52
2022/03/26 11:19:06;;;;;;;;;;;20.00;55.00;;;;;;4930862;29;19926;-52
2022/03/26 11:21:37;;;;;;;;;;;20.20;53.60;;;;;;4929951;29;19918;-50
2022/03/26 11:24:03;;;;;;;;;;;20.40;53.60;;;;;;4932336;29;19926;-52
2022/03/26 11:26:37;;;;;;;;;;;20.10;53.50;;;;;;4934574;29;19932;-50
2022/03/26 11:29:03;;;;;;;;;;;20.10;53.60;;;;;;4934232;29;19926;-51
2022/03/26 11:31:33;;;;;;;;;;;20.20;52.90;;;;;;4932628;29;20300;-52
2022/03/26 11:34:05;;;;;;;;;;;21.10;53.20;;;;;;4934457;29;19910;-51
2022/03/26 11:36:32;;;;;;;;;;;21.80;52.50;;;;;;4933993;29;19911;-51
2022/03/26 11:39:11;;;;;;;;;;;21.10;50.40;;;;;;4933853;29;19946;-52
2022/03/26 11:41:36;;;;;;;;;;;20.20;50.70;;;;;;4933243;29;19914;-51
2022/03/26 11:44:03;;;;;;;;;;;19.30;51.90;;;;;;4933826;29;20417;-52
2022/03/26 11:52:35;;;;;;;;;;;19.00;54.50;;;;;;4933641;29;19954;-53
2022/03/26 11:55:01;;;;;;;;;;;18.80;54.10;;;;;;4920869;29;20008;-50
2022/03/26 11:57:27;;;;;;;;;;;18.60;55.20;;;;;;4954009;28;19972;-53
2022/03/26 11:59:53;;;;;;;;;;;18.80;54.90;;;;;;4971549;28;19910;-52
2022/03/26 12:02:18;;;;;;;;;;;18.80;54.30;;;;;;4971427;28;20381;-52
2022/03/26 12:04:52;;;;;;;;;;;18.90;53.70;;;;;;4971701;28;19954;-52
2022/03/26 12:07:18;;;;;;;;;;;19.10;53.30;;;;;;4971534;28;20282;-53
2022/03/26 12:09:43;;;;;;;;;;;19.30;53.00;;;;;;4971106;28;19918;-51
2022/03/26 12:12:11;;;;;;;;;;;19.80;54.00;;;;;;4971438;28;19917;-52
2022/03/26 12:14:56;;;;;;;;;;;19.90;53.90;;;;;;4964872;28;19910;-52
2022/03/26 12:17:40;;;;;;;;;;;19.50;54.00;;;;;;4952797;29;19915;-53
2022/03/26 12:20:24;;;;;;;;;;;19.60;55.50;;;;;;4967129;28;19907;-51
2022/03/26 12:23:10;;;;;;;;;;;20.10;54.60;;;;;;4951620;28;19907;-51
2022/03/26 12:25:59;;;;;;;;;;;19.80;53.70;;;;;;4966452;28;20596;-53
2022/03/26 12:28:25;;;;;;;;;;;20.20;52.30;;;;;;4944050;29;20370;-51
2022/03/26 12:30:53;;;;;;;;;;;20.30;52.20;;;;;;4966815;28;19926;-52
2022/03/26 12:33:20;;;;;;;;;;;20.40;51.60;;;;;;4951747;28;19910;-51
2022/03/26 12:35:46;;;;;;;;;;;20.30;51.50;;;;;;4951953;28;20648;-52
2022/03/26 12:38:12;;;;;;;;;;;20.40;51.00;;;;;;4951838;28;20354;-51
2022/03/26 12:40:38;;;;;;;;;;;20.60;50.70;;;;;;4966304;28;19906;-50
2022/03/26 12:43:07;;;;;;;;;;;20.70;51.50;;;;;;4951717;28;19933;-52
2022/03/26 12:45:33;;;;;;;;;;;20.80;51.30;;;;;;4951963;28;20323;-53
2022/03/26 12:47:59;;;;;;;;;;;20.80;50.60;;;;;;4951862;28;19935;-52
2022/03/26 12:50:25;;;;;;;;;;;20.60;51.30;;;;;;4951218;28;19925;-52
2022/03/26 12:52:50;;;;;;;;;;;20.40;50.50;;;;;;4951461;28;19914;-52
2022/03/26 12:55:16;;;;;;;;;;;20.30;50.40;;;;;;4966479;28;20001;-50
2022/03/26 13:00:28;;;;;;;;;;;20.30;49.60;;;;;;4970767;28;20605;-51
2022/03/26 13:03:00;;;;;;;;;;;20.40;49.80;;;;;;4957346;28;19910;-51
2022/03/26 13:05:27;;;;;;;;;;;20.40;49.20;;;;;;4951104;28;19918;-52
2022/03/26 13:07:56;;;;;;;;;;;19.90;49.70;;;;;;4951342;28;20004;-52
2022/03/26 13:10:35;;;;;;;;;;;19.80;50.80;;;;;;4951187;28;19918;-52
2022/03/26 13:13:01;;;;;;;;;;;19.60;50.60;;;;;;4950933;28;19993;-52
2022/03/26 13:15:27;;;;;;;;;;;19.50;49.80;;;;;;4951345;28;19910;-52
2022/03/26 13:18:01;;;;;;;;;;;19.80;50.50;;;;;;4951279;29;20331;-51
2022/03/26 13:20:31;;;;;;;;;;;20.20;50.70;;;;;;4950860;29;20358;-51
2022/03/26 13:22:57;;;;;;;;;;;20.50;50.40;;;;;;4951202;29;19913;-51
2022/03/26 13:25:23;;;;;;;;;;;20.80;49.30;;;;;;4950919;29;19907;-51
2022/03/26 13:27:49;;;;;;;;;;;20.70;49.60;;;;;;4950597;29;19965;-51
2022/03/26 13:30:15;;;;;;;;;;;20.70;50.40;;;;;;4931921;28;19918;-52
2022/03/26 13:32:43;;;;;;;;;;;20.70;49.10;;;;;;4953662;28;19957;-52
2022/03/26 13:35:11;;;;;;;;;;;20.70;49.20;;;;;;4950940;29;19926;-53
2022/03/26 13:37:37;;;;;;;;;;;20.50;49.40;;;;;;4950637;29;19958;-52
2022/03/26 13:40:03;;;;;;;;;;;20.70;49.80;;;;;;4950546;28;19949;-51
2022/03/26 13:42:29;;;;;;;;;;;20.70;49.80;;;;;;4950579;28;19906;-51
2022/03/26 13:44:56;;;;;;;;;;;20.80;49.90;;;;;;4950480;28;19917;-52
2022/03/26 13:47:23;;;;;;;;;;;20.90;48.60;;;;;;4950387;28;20004;-51
2022/03/26 13:50:09;;;;;;;;;;;20.60;49.20;;;;;;4950464;28;19914;-53
2022/03/26 13:52:36;;;;;;;;;;;20.60;49.90;;;;;;4949042;29;20032;-51
2022/03/26 13:55:18;;;;;;;;;;;20.30;49.40;;;;;;4950501;29;19903;-51
2022/03/26 13:57:46;;;;;;;;;;;20.40;49.70;;;;;;4958968;28;20073;-50
2022/03/26 14:00:12;;;;;;;;;;;19.90;49.10;;;;;;4969847;28;20452;-51
2022/03/26 14:02:38;;;;;;;;;;;19.60;50.50;;;;;;4969516;28;19914;-51
2022/03/26 14:05:04;;;;;;;;;;;19.70;50.50;;;;;;4969596;28;19929;-51
2022/03/26 14:07:30;;;;;;;;;;;19.60;50.60;;;;;;4969080;28;20464;-50
2022/03/26 14:09:56;;;;;;;;;;;19.80;50.90;;;;;;4969497;28;20278;-50
2022/03/26 14:12:21;;;;;;;;;;;19.90;50.20;;;;;;4969234;28;19917;-52
2022/03/26 14:14:47;;;;;;;;;;;20.20;49.80;;;;;;4969790;28;19964;-51
2022/03/26 14:17:12;;;;;;;;;;;20.00;49.00;;;;;;4969200;28;19914;-51
2022/03/26 14:19:38;;;;;;;;;;;20.00;49.30;;;;;;4969518;28;19910;-52
2022/03/26 14:22:04;;;;;;;;;;;19.90;49.30;;;;;;4967997;28;19910;-49
2022/03/26 14:24:30;;;;;;;;;;;19.80;49.90;;;;;;4968104;28;19914;-52
2022/03/26 14:26:56;;;;;;;;;;;19.50;49.80;;;;;;4950042;28;19914;-50
2022/03/26 14:29:22;;;;;;;;;;;19.50;49.70;;;;;;4950368;28;20517;-50
2022/03/26 14:31:48;;;;;;;;;;;19.40;50.10;;;;;;4949871;28;19910;-51
2022/03/26 14:34:14;;;;;;;;;;;19.40;50.00;;;;;;4950377;28;19917;-53
2022/03/26 14:36:39;;;;;;;;;;;19.30;50.00;;;;;;4949985;29;19917;-51